TLSO2: Arkansas River, Tulsa, OK

                                SHEF ID:       TLSO2     Arkansas River at Tulsa, OK
STATION TYPE: Stream Gauge
Regulating: Stage = 15.00, Flow = 96489

PRECIP STAGE STAGE(2) RIV-FLOW WTR-TEMP DIS-OXY BAT-LOAD
in ft ft cfs F mg/l volt
Ccp-Rev Ccp-Rev Ccp-Rev Ccp-Rev Ccp-Rev Ccp-Rev Ccp-Rev
(America/Chicago)
03/27 00:00 0.00 4.66 ---- 5477 67.66 8.84 ----
03/27 01:00 0.00 4.68 ---- 5581 66.18 8.38 ----
03/27 02:00 0.00 4.62 ---- 5270 63.32 8.08 ----
03/27 03:00 0.00 4.52 ---- 4774 63.41 7.76 ----
03/27 04:00 0.00 4.51 ---- 4726 61.48 7.62 ----
03/27 05:00 0.00 4.50 ---- 4678 60.96 7.67 ----
03/27 06:00 0.00 4.45 ---- 4443 60.22 7.77 ----
03/27 07:00 0.00 4.41 ---- 4260 59.61 7.93 ----
03/27 08:00 0.00 4.44 ---- 4397 58.87 8.10 ----
03/27 09:00 0.00 4.41 ---- 4260 58.77 8.14 ----
03/27 10:00 0.00 4.40 ---- 4215 58.21 8.39 ----
03/27 11:00 0.00 4.42 ---- 4306 58.03 8.60 ----
03/27 12:00 0.00 4.42 ---- 4306 57.79 8.93 ----
03/27 13:00 0.00 4.43 ---- 4351 57.92 9.25 ----
03/27 14:00 0.00 4.40 ---- 4215 57.72 9.97 ----
03/27 15:00 0.00 4.37 ---- 4082 58.06 10.38 ----
03/27 16:00 0.00 4.34 ---- 3951 58.12 11.21 ----
03/27 17:00 0.00 4.30 ---- 3780 58.33 11.29 ----
03/27 18:00 0.00 4.26 ---- 3613 58.42 11.15 ----
03/27 19:00 0.00 4.26 ---- 3613 58.39 11.06 ----
03/27 20:00 0.00 4.25 ---- 3572 57.69 11.89 ----
03/27 21:00 0.00 4.30 ---- 3780 57.34 11.87 ----
03/27 22:00 0.00 4.30 ---- 3780 57.00 11.71 ----
03/27 23:00 0.00 4.36 ---- 4038 56.86 11.46 ----
Data processed at Sat 28Mar2026 04:48 GMT

NOTICE: If you are parsing this page

Please convert to using our Data API. Starting early 2026 we will be migrating to: https://water.usace.army.mil with modern pages rendered in JavaScript. When this migration completes you will no longer be able to scrape this page! CWMSDataAPI (CDA)

Timeseries IDs (TSIDs)

TSIDs used from left to right in the data table
TULA.Precip-Inc.Total.1Hour.1Hour.Ccp-Rev
TULA.Stage.Inst.1Hour.0.Ccp-Rev
TULA.Stage-Alt.Inst.1Hour.0.Ccp-Rev
TULA.Flow.Inst.1Hour.0.Ccp-Rev
TULA.Temp-Water.Inst.1Hour.0.Ccp-Rev
TULA.Conc-DO.Inst.1Hour.0.Ccp-Rev
TULA.Volt-Battery Load.Inst.1Hour.0.Ccp-Rev

                            

All information presented herein is the property of the government of the United States of America and may be revised or deleted at any time without prior notice. Dissemination of this information without the expressed written consent of the Public Affairs Office, Tulsa District U.S. Army Corps of Engineers is strictly prohibited. These data are gathered electronically and, as presented, have NOT undergone any form of quality control. These data are NOT guaranteed to be valid or correct.